Time;durP1;ratioP1;P1;durP2;ratioP2;P2;SDS_P1;SDS_P2;PMS_P1;PMS_P2;Temp;Humidity;BMP_temperature;BMP_pressure;BME280_temperature;BME280_humidity;BME280_pressure;Samples;Min_cycle;Max_cycle;Signal;HPM_P1;HPM_P2
2021/07/22 00:02:05;;;;;;;10.77;7.23;;;16.50;37.60;;;;;;5016096;28;20175;-70
2021/07/22 00:04:31;;;;;;;9.37;6.40;;;16.50;37.50;;;;;;5033753;28;20171;-70
2021/07/22 00:06:56;;;;;;;10.10;6.80;;;16.40;38.00;;;;;;5015940;28;20206;-70
2021/07/22 00:09:22;;;;;;;9.30;6.43;;;16.40;38.20;;;;;;5033258;28;20205;-71
2021/07/22 00:11:47;;;;;;;10.23;7.57;;;16.40;38.30;;;;;;5033695;28;20175;-71
2021/07/22 00:14:14;;;;;;;8.73;7.53;;;16.40;38.00;;;;;;5033688;28;20176;-70
2021/07/22 00:16:40;;;;;;;9.60;6.40;;;16.30;38.00;;;;;;5033604;28;20237;-70
2021/07/22 00:19:05;;;;;;;7.80;6.17;;;16.30;38.30;;;;;;5033268;28;20437;-70
2021/07/22 00:21:31;;;;;;;9.67;5.90;;;16.30;38.50;;;;;;5034032;28;20219;-72
2021/07/22 00:23:56;;;;;;;17.50;6.80;;;16.20;38.40;;;;;;5034206;28;20648;-70
2021/07/22 00:26:22;;;;;;;9.07;6.23;;;16.30;38.40;;;;;;5016517;28;20222;-71
2021/07/22 00:28:47;;;;;;;15.03;6.27;;;16.30;38.50;;;;;;5047192;23;20231;-72
2021/07/22 00:31:12;;;;;;;9.63;7.03;;;16.30;38.30;;;;;;5033448;28;20566;-71
2021/07/22 00:33:38;;;;;;;9.27;7.57;;;16.40;37.90;;;;;;5032916;28;20175;-72
2021/07/22 00:36:10;;;;;;;10.07;6.80;;;16.30;38.00;;;;;;5033277;28;20298;-72
2021/07/22 00:38:36;;;;;;;8.07;6.90;;;16.30;38.20;;;;;;5015246;28;20180;-72
2021/07/22 00:41:01;;;;;;;9.07;7.50;;;16.30;38.40;;;;;;5032993;28;20402;-70
2021/07/22 00:43:27;;;;;;;10.90;7.67;;;16.30;38.30;;;;;;5033106;28;20179;-72
2021/07/22 00:45:53;;;;;;;8.50;6.70;;;16.30;38.00;;;;;;5033045;28;20235;-71
2021/07/22 00:48:18;;;;;;;12.60;6.60;;;16.30;38.10;;;;;;5033083;28;20210;-71
2021/07/22 00:50:44;;;;;;;12.43;6.63;;;16.30;38.50;;;;;;5032836;28;20178;-70
2021/07/22 00:53:09;;;;;;;7.33;6.10;;;16.20;38.30;;;;;;5033227;28;20390;-69
2021/07/22 00:55:35;;;;;;;8.00;6.77;;;16.20;38.70;;;;;;5015353;28;20183;-70
2021/07/22 00:58:00;;;;;;;10.63;6.30;;;16.20;38.70;;;;;;5033372;28;20178;-70
2021/07/22 01:00:26;;;;;;;7.77;6.63;;;16.10;39.10;;;;;;5032799;28;20198;-70
2021/07/22 01:02:51;;;;;;;9.57;6.73;;;16.10;39.30;;;;;;5032928;28;20488;-70
2021/07/22 01:05:17;;;;;;;8.70;7.03;;;16.00;39.60;;;;;;5032704;28;20179;-71
2021/07/22 01:07:43;;;;;;;8.13;6.90;;;16.00;40.00;;;;;;5032490;28;20215;-70
2021/07/22 01:10:09;;;;;;;7.87;5.53;;;16.00;39.90;;;;;;5032227;28;20203;-71
2021/07/22 01:12:34;;;;;;;10.07;6.73;;;16.10;39.80;;;;;;5032441;28;20175;-70
2021/07/22 01:15:00;;;;;;;8.10;6.43;;;16.10;39.90;;;;;;5032442;28;20928;-71
2021/07/22 01:17:45;;;;;;;8.50;6.20;;;16.10;39.90;;;;;;5032704;28;20182;-71
2021/07/22 01:20:14;;;;;;;7.10;5.50;;;16.00;39.90;;;;;;5014275;28;20717;-72
2021/07/22 01:22:40;;;;;;;8.70;7.80;;;16.00;40.20;;;;;;5032310;28;20429;-71
2021/07/22 01:25:06;;;;;;;9.80;5.87;;;16.00;39.90;;;;;;5032276;28;20564;-70
2021/07/22 01:27:32;;;;;;;7.93;6.67;;;16.00;40.30;;;;;;5032066;28;20302;-72
2021/07/22 01:29:58;;;;;;;9.60;7.33;;;16.00;40.50;;;;;;5031690;28;20537;-70
2021/07/22 01:32:23;;;;;;;7.33;5.57;;;16.00;40.00;;;;;;5032084;28;20406;-69
2021/07/22 01:34:49;;;;;;;9.50;6.10;;;16.00;40.00;;;;;;5031797;28;20176;-72
2021/07/22 01:37:14;;;;;;;9.40;7.30;;;16.00;39.80;;;;;;5032123;28;20183;-70
2021/07/22 01:39:40;;;;;;;7.63;6.60;;;16.00;40.00;;;;;;5031692;28;20655;-68
2021/07/22 01:42:09;;;;;;;8.37;6.70;;;15.90;40.20;;;;;;5031877;28;20698;-71
2021/07/22 01:44:34;;;;;;;12.17;6.93;;;15.80;40.80;;;;;;5032121;28;20440;-72
2021/07/22 01:47:03;;;;;;;9.97;7.00;;;15.80;40.90;;;;;;5030985;28;20544;-70
2021/07/22 01:49:28;;;;;;;10.70;7.50;;;15.80;41.00;;;;;;5031363;28;20221;-72
2021/07/22 01:51:54;;;;;;;11.27;7.10;;;15.70;41.20;;;;;;5031768;28;20410;-72
2021/07/22 01:54:19;;;;;;;13.07;8.60;;;15.60;41.20;;;;;;5031677;28;20178;-71
2021/07/22 01:56:45;;;;;;;7.30;6.60;;;15.60;41.60;;;;;;5031787;28;20179;-69
2021/07/22 01:59:11;;;;;;;9.03;6.97;;;15.50;41.90;;;;;;5031744;28;20206;-73
2021/07/22 02:01:36;;;;;;;9.73;6.87;;;15.60;41.90;;;;;;5031645;28;20666;-69
2021/07/22 02:04:02;;;;;;;7.40;6.47;;;15.60;41.70;;;;;;5031362;28;20232;-68
2021/07/22 02:06:27;;;;;;;9.37;6.03;;;15.60;41.70;;;;;;5031383;28;20207;-70
2021/07/22 02:08:53;;;;;;;10.10;6.70;;;15.60;41.70;;;;;;5031035;28;20199;-69
2021/07/22 02:11:18;;;;;;;11.40;7.90;;;15.50;41.90;;;;;;5031547;28;20227;-68
2021/07/22 02:13:44;;;;;;;7.80;6.23;;;15.50;42.00;;;;;;5031566;28;20214;-70
2021/07/22 02:16:09;;;;;;;8.33;7.50;;;15.40;42.20;;;;;;5031329;28;20235;-68
2021/07/22 02:18:35;;;;;;;7.77;6.67;;;15.40;42.40;;;;;;5031120;28;20183;-72
2021/07/22 02:21:08;;;;;;;8.63;6.30;;;15.30;42.80;;;;;;5031122;28;20185;-70
2021/07/22 02:23:34;;;;;;;10.30;7.20;;;15.30;43.30;;;;;;5013674;28;20195;-69
2021/07/22 02:26:03;;;;;;;8.43;7.10;;;15.30;43.30;;;;;;5031083;28;20463;-69
2021/07/22 02:28:29;;;;;;;12.80;7.73;;;15.30;42.90;;;;;;5012673;28;20848;-69
2021/07/22 02:30:54;;;;;;;9.07;7.10;;;15.30;42.90;;;;;;5008736;28;20437;-70
2021/07/22 02:33:20;;;;;;;8.67;7.03;;;15.20;43.30;;;;;;5009639;28;20412;-70
2021/07/22 02:35:46;;;;;;;9.40;7.03;;;15.20;43.60;;;;;;5009697;28;20281;-68
2021/07/22 02:38:11;;;;;;;9.23;7.23;;;15.30;43.40;;;;;;5009739;28;20183;-69
2021/07/22 02:40:38;;;;;;;7.23;6.53;;;15.20;42.80;;;;;;5009517;28;20272;-69
2021/07/22 02:43:03;;;;;;;7.87;7.07;;;15.20;43.50;;;;;;5009260;28;20187;-69
2021/07/22 02:45:29;;;;;;;7.80;7.00;;;15.10;43.60;;;;;;5010475;28;20422;-70
2021/07/22 02:47:55;;;;;;;18.13;8.40;;;15.10;43.50;;;;;;5011114;28;20190;-69
2021/07/22 02:50:21;;;;;;;7.13;5.90;;;15.10;43.40;;;;;;5010756;28;20201;-69
2021/07/22 02:52:46;;;;;;;9.43;6.50;;;15.00;43.50;;;;;;5011015;28;20505;-70
2021/07/22 02:55:12;;;;;;;8.80;5.60;;;15.00;43.70;;;;;;5011118;28;20191;-68
2021/07/22 02:57:38;;;;;;;15.40;7.30;;;15.00;43.90;;;;;;5011007;28;20545;-70
2021/07/22 03:00:04;;;;;;;7.50;6.60;;;15.00;44.10;;;;;;5010866;28;20469;-68
2021/07/22 03:02:30;;;;;;;9.93;7.80;;;15.00;44.10;;;;;;5011057;28;20245;-69
2021/07/22 03:04:56;;;;;;;8.10;7.30;;;14.90;44.40;;;;;;5010869;28;20422;-71
2021/07/22 03:07:22;;;;;;;11.20;7.97;;;14.90;44.40;;;;;;4993237;28;20468;-70
2021/07/22 03:09:47;;;;;;;16.67;7.80;;;15.00;44.20;;;;;;5010865;28;20202;-69
2021/07/22 03:12:13;;;;;;;8.60;7.70;;;15.00;44.10;;;;;;5010824;28;20222;-70
2021/07/22 03:14:39;;;;;;;9.27;7.10;;;15.00;44.50;;;;;;5009608;28;20192;-69
2021/07/22 03:17:04;;;;;;;7.77;5.03;;;15.00;43.90;;;;;;5010797;28;20186;-69
2021/07/22 03:19:30;;;;;;;8.03;6.40;;;15.00;43.50;;;;;;5010499;28;20783;-68
2021/07/22 03:21:55;;;;;;;8.90;6.80;;;15.00;43.60;;;;;;5010710;28;20209;-70
2021/07/22 03:24:21;;;;;;;15.60;7.50;;;15.00;43.50;;;;;;5010676;28;20183;-71
2021/07/22 03:26:47;;;;;;;8.67;7.73;;;15.00;43.30;;;;;;5010658;28;20674;-71
2021/07/22 03:29:12;;;;;;;7.47;6.57;;;15.00;43.40;;;;;;5010166;28;20308;-72
2021/07/22 03:31:38;;;;;;;9.80;7.83;;;15.00;43.30;;;;;;5010571;28;20187;-71
2021/07/22 03:34:03;;;;;;;7.63;6.97;;;15.00;43.20;;;;;;5010585;28;20215;-73
2021/07/22 03:36:29;;;;;;;7.90;6.20;;;15.00;43.00;;;;;;5010631;28;20237;-70
2021/07/22 03:38:54;;;;;;;9.90;7.33;;;15.00;43.00;;;;;;5010176;28;20215;-71
2021/07/22 03:41:22;;;;;;;7.73;6.80;;;14.90;43.00;;;;;;5010599;28;20189;-70
2021/07/22 03:43:48;;;;;;;9.43;7.67;;;15.00;43.10;;;;;;4992839;28;20699;-71
2021/07/22 03:46:13;;;;;;;10.30;7.23;;;15.00;42.60;;;;;;5010880;28;20469;-69
2021/07/22 03:48:39;;;;;;;7.27;6.43;;;15.00;42.60;;;;;;5010504;28;20209;-71
2021/07/22 03:51:04;;;;;;;12.07;7.80;;;15.00;42.60;;;;;;5010288;28;20211;-72
2021/07/22 03:53:30;;;;;;;8.03;7.20;;;15.00;42.30;;;;;;5010554;28;20176;-71
2021/07/22 03:55:56;;;;;;;7.43;6.70;;;15.00;42.10;;;;;;5010408;28;20682;-68
2021/07/22 03:58:21;;;;;;;8.53;7.03;;;15.00;42.30;;;;;;5010442;28;20183;-71
2021/07/22 04:00:47;;;;;;;7.33;6.37;;;15.00;42.10;;;;;;5010314;28;20922;-71
2021/07/22 04:03:12;;;;;;;6.90;5.80;;;15.10;42.10;;;;;;4992861;28;20275;-71
2021/07/22 04:05:38;;;;;;;7.73;6.50;;;15.10;42.20;;;;;;5010286;28;20552;-73
2021/07/22 04:08:04;;;;;;;6.43;5.70;;;15.10;42.30;;;;;;5010508;28;20182;-70
2021/07/22 04:10:29;;;;;;;7.83;5.83;;;15.10;42.40;;;;;;5012835;28;20225;-70
2021/07/22 04:13:02;;;;;;;9.17;7.57;;;15.10;42.50;;;;;;5013941;28;20178;-70
2021/07/22 04:15:29;;;;;;;8.70;6.10;;;15.10;43.30;;;;;;5013969;28;20175;-70
2021/07/22 04:17:56;;;;;;;9.27;6.50;;;15.20;42.60;;;;;;5013847;28;20437;-70
2021/07/22 04:20:23;;;;;;;9.23;6.90;;;15.20;42.50;;;;;;5013498;28;20422;-69
2021/07/22 04:22:49;;;;;;;9.77;7.60;;;15.20;42.20;;;;;;5013788;28;20410;-71
2021/07/22 04:25:15;;;;;;;8.70;7.73;;;15.30;42.00;;;;;;5013738;28;20903;-70
2021/07/22 04:27:41;;;;;;;7.67;6.67;;;15.30;42.00;;;;;;5013419;28;20528;-70
2021/07/22 04:30:07;;;;;;;12.50;5.90;;;15.40;41.60;;;;;;5013104;28;20214;-70
2021/07/22 04:32:33;;;;;;;7.60;6.90;;;15.50;41.10;;;;;;5013710;28;20172;-70
2021/07/22 04:34:58;;;;;;;10.47;7.07;;;15.60;40.70;;;;;;5012106;28;20777;-70
2021/07/22 04:37:24;;;;;;;13.23;7.20;;;15.60;40.60;;;;;;5013562;28;20257;-69
2021/07/22 04:39:49;;;;;;;8.63;7.23;;;15.70;40.40;;;;;;5013264;28;20204;-70
2021/07/22 04:42:15;;;;;;;9.10;7.00;;;15.80;39.80;;;;;;5013458;28;20183;-72
2021/07/22 04:44:40;;;;;;;9.07;7.73;;;15.90;39.60;;;;;;5013319;28;20187;-71
2021/07/22 04:47:06;;;;;;;9.73;6.53;;;16.00;39.10;;;;;;4995519;28;20235;-70
2021/07/22 04:49:31;;;;;;;9.90;7.37;;;16.20;38.30;;;;;;5012897;28;20196;-70
2021/07/22 04:51:58;;;;;;;9.70;5.90;;;16.30;37.90;;;;;;5013134;28;20653;-70
2021/07/22 04:54:24;;;;;;;11.03;6.30;;;16.40;36.60;;;;;;5012787;28;20172;-71
2021/07/22 04:56:49;;;;;;;7.40;6.60;;;16.50;36.70;;;;;;5012982;28;20514;-71
2021/07/22 04:59:15;;;;;;;8.53;6.47;;;16.50;36.70;;;;;;4995154;28;20458;-72
2021/07/22 05:01:41;;;;;;;12.73;7.27;;;16.50;36.70;;;;;;5013116;28;20180;-71
2021/07/22 05:04:15;;;;;;;9.90;6.43;;;16.60;35.80;;;;;;4995334;28;20261;-70
2021/07/22 05:06:40;;;;;;;12.10;8.40;;;16.80;35.40;;;;;;5012925;28;20199;-71
2021/07/22 05:09:06;;;;;;;11.47;7.40;;;17.40;33.90;;;;;;5012555;28;20430;-71
2021/07/22 05:11:31;;;;;;;5.77;5.27;;;18.20;31.50;;;;;;5012707;28;20176;-70
2021/07/22 05:13:57;;;;;;;7.97;7.10;;;18.90;28.70;;;;;;5012650;28;20230;-70
2021/07/22 05:16:23;;;;;;;10.47;7.60;;;19.60;27.20;;;;;;5012748;28;20238;-71
2021/07/22 05:18:51;;;;;;;8.27;6.63;;;20.40;25.50;;;;;;5012329;28;20544;-71
2021/07/22 05:21:16;;;;;;;8.30;7.60;;;21.30;23.90;;;;;;5011284;28;20176;-69
2021/07/22 05:23:42;;;;;;;8.23;7.43;;;22.30;21.10;;;;;;5012544;28;20415;-71
2021/07/22 05:26:11;;;;;;;9.63;8.10;;;23.00;19.50;;;;;;5012229;28;20226;-70
2021/07/22 05:28:40;;;;;;;8.30;7.60;;;23.70;19.10;;;;;;5012201;28;20255;-71
2021/07/22 05:31:07;;;;;;;9.00;8.30;;;24.40;17.40;;;;;;5012372;28;20920;-68
2021/07/22 05:33:33;;;;;;;8.53;7.90;;;24.90;16.10;;;;;;5013044;28;20419;-72
2021/07/22 05:36:07;;;;;;;9.70;8.83;;;25.30;16.00;;;;;;5012587;28;20410;-71
2021/07/22 05:38:34;;;;;;;8.93;8.27;;;25.80;15.20;;;;;;4994641;28;20415;-71
2021/07/22 05:41:01;;;;;;;12.57;9.97;;;26.00;14.70;;;;;;5011705;28;20414;-71
2021/07/22 05:43:27;;;;;;;15.70;10.20;;;25.90;14.70;;;;;;5012834;28;20415;-70
2021/07/22 05:45:54;;;;;;;9.30;8.70;;;25.50;14.80;;;;;;5013013;28;20471;-69
2021/07/22 05:48:19;;;;;;;12.23;11.00;;;25.80;14.20;;;;;;5012342;28;20415;-69
2021/07/22 05:50:46;;;;;;;11.40;10.60;;;26.30;13.00;;;;;;5012570;28;20413;-68
2021/07/22 05:53:11;;;;;;;12.23;11.13;;;26.80;13.00;;;;;;5012325;28;20295;-69
2021/07/22 05:55:37;;;;;;;12.80;11.67;;;27.40;12.30;;;;;;5012379;28;20466;-69
2021/07/22 05:58:02;;;;;;;12.87;11.97;;;27.60;11.70;;;;;;5012039;28;20176;-69
2021/07/22 06:00:28;;;;;;;13.93;12.63;;;27.40;11.70;;;;;;5011698;28;20716;-72
2021/07/22 06:02:53;;;;;;;13.30;12.47;;;27.70;11.40;;;;;;5011976;28;20222;-68
2021/07/22 06:05:19;;;;;;;14.77;13.60;;;28.10;11.00;;;;;;5012027;28;20227;-69
2021/07/22 06:07:46;;;;;;;14.70;13.80;;;28.50;9.50;;;;;;5012360;28;20245;-70
2021/07/22 06:10:12;;;;;;;13.87;13.17;;;28.90;9.10;;;;;;5011920;28;20200;-70
2021/07/22 06:12:39;;;;;;;15.97;14.83;;;29.20;9.00;;;;;;4994475;28;20915;-71
2021/07/22 06:15:05;;;;;;;16.23;14.83;;;29.50;8.80;;;;;;5011999;28;20425;-71
2021/07/22 06:17:34;;;;;;;17.27;16.23;;;29.70;8.80;;;;;;5012276;28;20504;-71
2021/07/22 06:19:59;;;;;;;17.07;15.97;;;29.90;7.60;;;;;;5011848;28;20445;-71
2021/07/22 06:22:25;;;;;;;17.00;16.00;;;30.00;7.90;;;;;;5012499;28;20805;-70
2021/07/22 06:24:50;;;;;;;18.40;16.97;;;30.30;7.70;;;;;;5012283;28;20186;-70
2021/07/22 06:27:16;;;;;;;19.03;17.93;;;30.50;7.50;;;;;;5012155;28;20200;-71
2021/07/22 06:29:41;;;;;;;18.63;17.63;;;30.50;7.40;;;;;;5033067;23;20617;-73
2021/07/22 06:32:07;;;;;;;20.50;19.30;;;30.50;7.40;;;;;;5031153;28;20674;-70
2021/07/22 06:34:32;;;;;;;20.33;19.13;;;30.50;7.10;;;;;;5031544;28;20229;-70
2021/07/22 06:36:58;;;;;;;21.70;20.40;;;30.70;7.00;;;;;;5031706;28;20554;-70
2021/07/22 06:39:23;;;;;;;21.50;20.33;;;30.70;7.30;;;;;;5024962;28;20203;-73
2021/07/22 06:41:49;;;;;;;20.10;18.93;;;31.00;7.60;;;;;;5011774;28;20189;-70
2021/07/22 06:44:14;;;;;;;21.63;20.37;;;31.10;7.90;;;;;;5011542;28;20184;-70
2021/07/22 06:46:40;;;;;;;23.43;21.63;;;31.30;6.80;;;;;;5011159;28;20208;-75
2021/07/22 06:49:05;;;;;;;21.67;20.43;;;31.40;6.00;;;;;;5009649;28;20207;-70
2021/07/22 06:51:31;;;;;;;23.47;21.40;;;31.60;5.90;;;;;;5011196;28;20326;-70
2021/07/22 06:53:57;;;;;;;23.33;21.77;;;31.60;6.30;;;;;;5009935;28;20179;-69
2021/07/22 06:56:22;;;;;;;22.80;21.17;;;31.50;6.10;;;;;;5011136;28;20184;-69
2021/07/22 06:58:48;;;;;;;23.03;21.30;;;31.70;5.80;;;;;;5020614;28;20187;-70
2021/07/22 07:01:17;;;;;;;23.70;22.30;;;31.80;6.10;;;;;;5024742;28;20194;-70
2021/07/22 07:03:42;;;;;;;23.77;22.23;;;32.00;5.40;;;;;;5006745;28;20426;-70
2021/07/22 07:06:08;;;;;;;23.63;22.23;;;32.10;5.40;;;;;;5012136;28;20470;-70
2021/07/22 07:08:33;;;;;;;21.33;20.23;;;32.20;5.40;;;;;;5020059;28;20183;-70
2021/07/22 07:11:00;;;;;;;23.30;21.97;;;32.10;5.90;;;;;;5025719;28;20238;-70
2021/07/22 07:13:25;;;;;;;23.97;22.37;;;32.10;5.40;;;;;;5027144;28;20183;-70
2021/07/22 07:15:51;;;;;;;25.63;23.50;;;32.40;5.60;;;;;;5026053;28;20484;-70
2021/07/22 07:18:16;;;;;;;24.33;22.70;;;32.20;5.40;;;;;;5026379;28;20662;-70
2021/07/22 07:20:42;;;;;;;24.73;23.33;;;32.30;5.50;;;;;;5025239;28;20202;-70
2021/07/22 07:23:07;;;;;;;23.53;22.23;;;32.60;5.60;;;;;;5025515;28;20190;-70
2021/07/22 07:25:33;;;;;;;23.70;22.40;;;32.70;5.70;;;;;;5026501;28;20187;-70
2021/07/22 07:27:59;;;;;;;23.23;22.00;;;32.90;5.10;;;;;;5025288;28;20211;-70
2021/07/22 07:30:25;;;;;;;23.57;22.33;;;32.90;4.80;;;;;;5025601;28;20241;-72
2021/07/22 07:32:54;;;;;;;25.60;24.00;;;33.10;4.80;;;;;;5026683;28;20454;-71
2021/07/22 07:35:23;;;;;;;23.60;22.17;;;33.20;4.80;;;;;;5011834;28;20222;-71
2021/07/22 07:37:49;;;;;;;24.17;22.77;;;33.10;4.50;;;;;;5006401;28;20439;-71
2021/07/22 07:40:15;;;;;;;24.57;23.17;;;33.10;4.90;;;;;;5008538;28;20447;-71
2021/07/22 07:42:40;;;;;;;24.20;22.90;;;33.30;5.20;;;;;;5009100;28;20423;-71
2021/07/22 07:45:07;;;;;;;25.83;24.03;;;33.40;4.40;;;;;;5012928;28;20419;-71
2021/07/22 07:47:33;;;;;;;25.57;23.90;;;33.50;4.10;;;;;;5013068;28;20208;-70
2021/07/22 07:49:58;;;;;;;24.53;22.80;;;33.70;3.90;;;;;;5014133;28;20492;-71
2021/07/22 07:52:25;;;;;;;25.63;24.27;;;33.50;5.20;;;;;;5014396;28;20548;-70
2021/07/22 07:54:52;;;;;;;25.17;23.40;;;32.80;4.00;;;;;;5013403;28;20176;-71
2021/07/22 07:57:18;;;;;;;24.37;23.07;;;32.40;5.10;;;;;;5013862;28;20509;-70
2021/07/22 07:59:45;;;;;;;25.10;23.60;;;32.80;4.40;;;;;;5012597;28;21010;-70
2021/07/22 08:02:13;;;;;;;25.47;23.90;;;33.20;4.30;;;;;;5013858;28;20411;-70
2021/07/22 08:04:38;;;;;;;26.00;24.30;;;33.00;3.30;;;;;;5014197;28;20505;-70
2021/07/22 08:07:04;;;;;;;25.13;23.60;;;33.10;4.00;;;;;;5023967;28;20596;-70
2021/07/22 08:09:29;;;;;;;26.57;25.07;;;33.10;5.00;;;;;;5032208;28;20229;-70
2021/07/22 08:11:55;;;;;;;24.87;23.60;;;32.70;4.10;;;;;;5014079;28;20180;-70
2021/07/22 08:14:21;;;;;;;25.60;24.13;;;32.20;4.80;;;;;;5033608;28;20194;-70
2021/07/22 08:16:46;;;;;;;25.10;23.70;;;32.00;5.30;;;;;;5028672;28;20187;-74
2021/07/22 08:19:12;;;;;;;24.30;23.10;;;32.40;5.60;;;;;;5021486;28;20203;-71
2021/07/22 08:21:38;;;;;;;24.80;23.50;;;32.60;3.10;;;;;;5023271;28;20172;-71
2021/07/22 08:24:04;;;;;;;24.90;23.60;;;32.50;3.60;;;;;;5013432;28;20419;-71
2021/07/22 08:26:29;;;;;;;24.30;23.00;;;32.80;3.90;;;;;;5012456;28;20538;-71
2021/07/22 08:28:55;;;;;;;24.07;22.87;;;33.10;2.90;;;;;;5012104;28;20565;-71
2021/07/22 08:31:20;;;;;;;25.23;23.60;;;33.30;3.90;;;;;;5012109;28;20207;-71
2021/07/22 08:33:46;;;;;;;25.23;23.70;;;33.40;3.20;;;;;;5013465;28;20563;-71
2021/07/22 08:36:12;;;;;;;24.20;23.07;;;33.50;3.90;;;;;;5013726;28;20597;-71
2021/07/22 08:38:37;;;;;;;27.27;25.40;;;33.40;3.20;;;;;;5013482;28;20645;-70
2021/07/22 08:41:03;;;;;;;26.93;25.43;;;33.50;3.00;;;;;;5030633;28;20209;-71
2021/07/22 08:43:31;;;;;;;26.00;24.60;;;33.80;2.30;;;;;;5033298;28;20250;-70
2021/07/22 08:45:57;;;;;;;26.47;24.97;;;33.30;2.20;;;;;;5031424;28;20437;-70
2021/07/22 08:48:23;;;;;;;25.80;24.20;;;33.10;2.40;;;;;;5033118;28;20467;-72
2021/07/22 08:50:48;;;;;;;26.33;25.03;;;32.20;2.60;;;;;;5032848;28;20668;-72
2021/07/22 08:53:14;;;;;;;26.63;25.07;;;31.70;3.60;;;;;;5031830;28;20175;-71
2021/07/22 08:55:44;;;;;;;27.70;25.70;;;31.50;3.80;;;;;;5032700;28;20168;-76
2021/07/22 08:58:10;;;;;;;26.43;24.67;;;31.10;4.00;;;;;;5031728;28;20414;-70
2021/07/22 09:00:35;;;;;;;25.53;24.00;;;30.80;4.70;;;;;;5032939;28;20777;-72
2021/07/22 09:03:01;;;;;;;25.43;24.10;;;30.00;6.30;;;;;;5031517;28;20182;-70
2021/07/22 09:05:28;;;;;;;25.07;23.77;;;29.40;7.20;;;;;;5012888;28;20188;-71
2021/07/22 09:07:53;;;;;;;25.00;23.23;;;28.90;6.90;;;;;;5023686;28;20206;-71
2021/07/22 09:10:20;;;;;;;24.63;23.30;;;28.70;6.90;;;;;;5022493;28;20446;-71
2021/07/22 09:12:47;;;;;;;23.90;22.60;;;28.30;7.10;;;;;;5013129;28;20263;-72
2021/07/22 09:15:27;;;;;;;23.20;22.10;;;27.90;8.40;;;;;;5011638;28;20419;-71
2021/07/22 09:17:53;;;;;;;25.13;23.33;;;27.80;9.60;;;;;;5015178;28;21182;-71
2021/07/22 09:20:32;;;;;;;25.97;24.03;;;27.70;10.10;;;;;;5022332;28;20446;-70
2021/07/22 09:22:59;;;;;;;23.50;22.10;;;27.60;9.80;;;;;;5023226;28;20422;-71
2021/07/22 09:25:48;;;;;;;24.80;23.10;;;27.20;10.60;;;;;;5032429;28;20468;-71
2021/07/22 09:28:15;;;;;;;23.93;22.53;;;27.10;10.90;;;;;;5032426;28;20621;-71
2021/07/22 09:30:59;;;;;;;22.07;20.80;;;26.70;11.90;;;;;;5032015;28;20488;-71
2021/07/22 09:33:39;;;;;;;22.17;20.80;;;26.60;13.20;;;;;;5027582;28;20430;-78
2021/07/22 09:36:06;;;;;;;23.13;21.50;;;26.60;13.00;;;;;;5012529;28;20934;-71
2021/07/22 09:38:32;;;;;;;21.67;20.37;;;26.50;11.80;;;;;;5006329;28;20455;-71
2021/07/22 09:40:58;;;;;;;23.70;22.40;;;26.60;12.90;;;;;;5020876;28;20449;-72
2021/07/22 09:43:40;;;;;;;22.97;21.33;;;26.70;11.50;;;;;;5030666;28;20198;-71
2021/07/22 09:46:07;;;;;;;22.70;21.50;;;26.80;11.70;;;;;;5030729;28;20211;-71
2021/07/22 09:48:32;;;;;;;22.40;21.03;;;26.70;11.90;;;;;;5031120;28;20911;-72
2021/07/22 09:50:58;;;;;;;22.80;21.50;;;26.70;11.90;;;;;;5031147;28;20436;-71
2021/07/22 09:53:25;;;;;;;23.53;22.30;;;26.60;10.60;;;;;;5031585;28;20183;-71
2021/07/22 09:55:55;;;;;;;22.03;20.73;;;26.30;11.70;;;;;;5030446;28;20175;-71
2021/07/22 09:58:21;;;;;;;23.03;21.63;;;26.20;11.60;;;;;;5026267;28;20423;-71
2021/07/22 10:00:49;;;;;;;23.17;21.97;;;26.20;11.60;;;;;;5011413;28;20509;-70
2021/07/22 10:03:17;;;;;;;22.70;21.10;;;26.30;11.70;;;;;;5011686;28;20692;-70
2021/07/22 10:05:58;;;;;;;22.97;21.77;;;26.40;11.70;;;;;;5011355;28;20411;-77
2021/07/22 10:08:26;;;;;;;23.53;22.23;;;26.60;10.60;;;;;;5022335;28;20844;-71
2021/07/22 10:10:53;;;;;;;22.67;21.43;;;26.70;11.90;;;;;;5029471;28;21012;-70
2021/07/22 10:13:27;;;;;;;22.87;21.60;;;26.50;11.10;;;;;;5026779;28;20565;-70
2021/07/22 10:15:53;;;;;;;22.70;21.33;;;26.60;10.70;;;;;;5026921;28;20784;-70
2021/07/22 10:18:22;;;;;;;23.07;21.83;;;26.60;10.30;;;;;;5011675;28;20411;-70
2021/07/22 10:20:55;;;;;;;24.27;22.60;;;26.50;10.80;;;;;;5028751;28;20438;-70
2021/07/22 10:23:21;;;;;;;24.80;23.10;;;26.50;10.90;;;;;;5031438;28;20472;-71
2021/07/22 10:25:50;;;;;;;23.03;21.80;;;26.60;10.60;;;;;;5031755;28;20415;-71
2021/07/22 10:28:17;;;;;;;23.10;21.63;;;26.70;11.20;;;;;;5031292;28;20519;-71
2021/07/22 10:30:45;;;;;;;23.97;22.57;;;26.60;10.60;;;;;;5031422;28;20446;-71
2021/07/22 10:33:11;;;;;;;22.87;21.63;;;26.80;10.50;;;;;;5030446;28;20501;-71
2021/07/22 10:35:37;;;;;;;23.20;21.70;;;26.80;10.50;;;;;;5031644;28;20460;-71
2021/07/22 10:38:11;;;;;;;23.00;21.90;;;27.00;11.20;;;;;;5031164;28;20860;-71
2021/07/22 10:40:47;;;;;;;23.60;22.10;;;27.00;10.00;;;;;;5031802;28;20817;-71
2021/07/22 10:43:34;;;;;;;23.37;21.37;;;26.60;10.60;;;;;;5031863;28;20472;-71
2021/07/22 10:46:17;;;;;;;23.23;21.63;;;26.70;11.20;;;;;;5031722;28;20409;-72
2021/07/22 10:48:46;;;;;;;22.77;21.57;;;26.80;11.90;;;;;;5030260;28;20418;-71
2021/07/22 10:51:19;;;;;;;22.53;21.30;;;26.70;10.80;;;;;;5031235;28;20428;-71
2021/07/22 10:53:47;;;;;;;23.23;21.87;;;26.60;11.10;;;;;;5029726;28;20732;-71
2021/07/22 10:56:14;;;;;;;22.50;21.30;;;26.50;11.70;;;;;;5030844;28;20422;-70
2021/07/22 10:58:39;;;;;;;23.53;22.23;;;26.60;11.00;;;;;;5022292;28;20423;-71
2021/07/22 11:01:06;;;;;;;23.07;21.77;;;26.70;11.90;;;;;;5009472;28;20443;-71
2021/07/22 11:03:34;;;;;;;25.20;23.60;;;26.90;11.10;;;;;;5029925;28;20179;-76
2021/07/22 11:06:13;;;;;;;22.47;21.30;;;27.00;10.90;;;;;;5030165;28;20786;-71
2021/07/22 11:08:43;;;;;;;23.73;22.23;;;27.10;10.60;;;;;;5030653;28;20414;-76
2021/07/22 11:11:13;;;;;;;23.47;22.07;;;27.10;11.00;;;;;;5029136;28;20468;-71
2021/07/22 11:13:41;;;;;;;24.80;23.00;;;27.10;10.20;;;;;;5026899;28;20428;-71
2021/07/22 11:16:09;;;;;;;24.23;22.93;;;27.00;10.40;;;;;;5030558;28;20900;-71
2021/07/22 11:18:43;;;;;;;27.10;23.60;;;27.10;10.60;;;;;;5032338;28;20438;-71
2021/07/22 11:21:16;;;;;;;23.60;21.73;;;27.20;10.50;;;;;;5034534;28;20611;-71
2021/07/22 11:23:41;;;;;;;24.23;22.77;;;27.30;10.70;;;;;;5034718;28;20778;-71
2021/07/22 11:26:07;;;;;;;24.87;22.93;;;27.20;10.20;;;;;;5032873;28;20458;-71
2021/07/22 11:28:34;;;;;;;24.30;22.70;;;27.30;11.00;;;;;;5034581;28;20171;-71
2021/07/22 11:31:02;;;;;;;22.77;21.67;;;27.30;10.40;;;;;;5032806;28;20462;-71
2021/07/22 11:33:36;;;;;;;23.07;21.77;;;27.40;10.10;;;;;;5034393;28;20418;-71
2021/07/22 11:36:07;;;;;;;22.60;21.40;;;27.10;10.20;;;;;;5034356;28;20776;-73
2021/07/22 11:38:35;;;;;;;23.50;22.00;;;27.30;10.20;;;;;;5032882;28;20517;-71
2021/07/22 11:41:01;;;;;;;23.40;22.00;;;27.40;10.10;;;;;;5032594;28;20499;-71
2021/07/22 11:43:40;;;;;;;22.83;21.67;;;27.50;10.20;;;;;;5032969;28;20744;-71
2021/07/22 11:46:17;;;;;;;23.30;21.83;;;27.50;10.60;;;;;;5034070;28;20457;-71
2021/07/22 11:48:44;;;;;;;24.97;23.40;;;27.50;10.10;;;;;;5032937;28;20504;-71
2021/07/22 11:51:14;;;;;;;23.70;22.10;;;27.40;10.00;;;;;;5033671;28;20872;-71
2021/07/22 11:53:41;;;;;;;24.33;22.33;;;27.40;10.40;;;;;;5032819;28;20445;-73
2021/07/22 11:56:16;;;;;;;22.93;21.73;;;27.30;10.80;;;;;;5034190;28;20413;-71
2021/07/22 11:58:47;;;;;;;24.03;22.63;;;27.50;11.70;;;;;;5025224;28;20462;-71
2021/07/22 12:01:13;;;;;;;23.57;22.30;;;27.50;10.20;;;;;;5012929;28;20434;-71
2021/07/22 12:03:38;;;;;;;23.27;21.97;;;27.20;9.80;;;;;;5031155;28;20484;-72
2021/07/22 12:06:04;;;;;;;24.80;23.10;;;27.30;10.10;;;;;;5033775;28;20179;-71
2021/07/22 12:08:29;;;;;;;23.50;22.17;;;27.40;10.30;;;;;;5033979;28;20632;-72
2021/07/22 12:11:00;;;;;;;24.43;22.83;;;27.40;10.00;;;;;;5033424;28;20218;-72
2021/07/22 12:13:26;;;;;;;23.80;22.30;;;27.50;10.20;;;;;;5028284;28;20183;-73
2021/07/22 12:15:51;;;;;;;23.63;22.33;;;27.50;9.80;;;;;;5030259;28;20802;-72
2021/07/22 12:18:21;;;;;;;24.50;23.20;;;27.50;10.00;;;;;;5034480;28;20283;-72
2021/07/22 12:20:46;;;;;;;24.20;22.80;;;27.50;9.90;;;;;;5031676;28;20203;-72
2021/07/22 12:23:33;;;;;;;24.10;22.60;;;27.60;9.90;;;;;;5034176;28;20437;-72
2021/07/22 12:26:03;;;;;;;23.97;22.40;;;27.50;10.30;;;;;;5033591;28;20194;-72
2021/07/22 12:28:30;;;;;;;25.00;23.23;;;27.40;11.00;;;;;;5033575;28;20493;-72
2021/07/22 12:31:14;;;;;;;23.63;22.30;;;27.50;9.90;;;;;;5045740;22;20508;-68
2021/07/22 12:33:39;;;;;;;24.30;22.93;;;27.60;10.50;;;;;;5032310;28;20429;-68
2021/07/22 12:36:19;;;;;;;24.03;22.53;;;27.60;9.50;;;;;;5032256;28;20927;-72
2021/07/22 12:38:44;;;;;;;24.17;22.60;;;27.50;9.50;;;;;;5033394;28;20246;-71